首页
METAR-TAF:

METAR-TAF

机场 :

德梅因, 艾奥瓦州, 美国

纬度: 41-32-16N, 经度: 093-39-58W, 海拔: 291米

当前天气观测

该预报发布于24分钟前的14:54 UTC
风速3节,风向南转西南
温度 18°C
湿度 94%
气压 1012 hPa
能見度: 14.5公里
多云层高于900英尺
多云层高于6500英尺
阴天层高于8000英尺
小雨

METAR: KDSM 221454Z 21003KT 9SM -RA BKN009 BKN065 OVC080 18/17 A2988 RMK AO2 RAE16B30 SLP112 P0001 60004 T01830172 51010 $

时间: 10:18 (15:18 UTC)

预报

该预报发布于3小时和29分钟前的11:49 UTC
预报有效从22日的 12点(UTC)到 23日的 06点(UTC)
风速8节,风向西南
能見度: 10公里
少量云层高于400英尺
散云层高于1500英尺, 积雨云.
阴天层高于4500英尺
附近有雷暴
短暂存在
从 22日的 13点(UTC)到 22日的 16点(UTC)
能見度: 4.8公里
多云层高于400英尺
阴天层高于1300英尺, 积雨云.
雷暴, 小雨
从 22日的 1700点(UTC)
风速7节,风向北转西北
能見度: 10公里
散云层高于3000英尺
阴天层高于5000英尺
附近有阵雨
从 22日的 2300点(UTC)
风速5节,风向多变
能見度: 10公里
散云层高于6000英尺
多云层高于12000英尺

TAF: KDSM 221149Z 2212/2306 23008KT P6SM VCTS FEW004 SCT015CB OVC045 TEMPO 2213/2216 3SM -TSRA BKN004 OVC013CB FM221700 34007KT P6SM VCSH SCT030 OVC050 FM222300 VRB05KT P6SM SCT060 BKN120

超过4000个机场的气象观测和天气预报(METAR&TAF报告)。

可查询的气象台以黄色和红色小点在地图上表示。

将鼠标移到小点上方,可查看气象台名称。

然后点击查看天气观测和预报。

如需切换地图:点击带黑十字的绿色按钮放大地图;点击带横线的绿色按钮缩小地图;或者点击绿色箭头查看邻近地区的地图。


METAR-TAF: